createdAt,value
2018-08-18T00:00:29.882Z,0.00
2018-08-18T00:01:29.861Z,0.00
2018-08-18T00:02:29.846Z,0.00
2018-08-18T00:03:29.830Z,0.00
2018-08-18T00:04:29.815Z,0.00
2018-08-18T00:05:29.796Z,0.00
2018-08-18T00:06:29.783Z,0.00
2018-08-18T00:07:29.765Z,0.00
2018-08-18T00:08:29.745Z,0.00
2018-08-18T00:09:29.731Z,0.00
2018-08-18T00:10:29.723Z,0.00
2018-08-18T00:11:29.697Z,0.00
2018-08-18T00:12:29.681Z,0.00
2018-08-18T00:13:29.666Z,0.00
2018-08-18T00:14:29.646Z,0.00
2018-08-18T00:15:29.633Z,0.00
2018-08-18T00:16:29.622Z,0.00
2018-08-18T00:17:29.602Z,0.00
2018-08-18T00:18:29.580Z,0.00
2018-08-18T00:19:29.567Z,0.00
2018-08-18T00:20:29.549Z,0.00
2018-08-18T00:21:29.533Z,0.00
2018-08-18T00:22:29.512Z,0.00
2018-08-18T00:23:29.500Z,0.00
2018-08-18T00:24:29.482Z,0.00
2018-08-18T00:25:29.463Z,0.00
2018-08-18T00:26:29.448Z,0.00
2018-08-18T00:27:29.439Z,0.00
2018-08-18T00:28:29.415Z,0.00
2018-08-18T00:29:29.396Z,0.00
2018-08-18T00:30:29.382Z,0.00
2018-08-18T00:31:29.363Z,0.00
2018-08-18T00:32:29.348Z,0.00
2018-08-18T00:33:29.330Z,0.00
2018-08-18T00:34:29.313Z,0.00
2018-08-18T00:35:29.301Z,0.00
2018-08-18T00:36:29.278Z,0.00
2018-08-18T00:37:29.265Z,0.00
2018-08-18T00:38:29.252Z,0.00
2018-08-18T00:39:29.229Z,0.00
2018-08-18T00:40:29.211Z,0.00
2018-08-18T00:41:29.204Z,0.00
2018-08-18T00:42:29.190Z,0.00
2018-08-18T00:43:29.160Z,0.00
2018-08-18T00:44:29.145Z,0.00
2018-08-18T00:45:29.129Z,0.00
2018-08-18T00:46:29.114Z,0.00
2018-08-18T00:47:29.098Z,0.00
2018-08-18T00:48:29.087Z,0.00
2018-08-18T00:49:29.062Z,0.00
2018-08-18T00:50:29.050Z,0.00
2018-08-18T00:51:29.027Z,0.00
2018-08-18T00:52:29.012Z,0.00
2018-08-18T00:53:28.993Z,0.00
2018-08-18T00:54:28.976Z,0.00
2018-08-18T00:55:28.960Z,0.00
2018-08-18T00:56:28.953Z,0.00
2018-08-18T00:57:28.926Z,0.00
2018-08-18T00:58:28.909Z,0.00
2018-08-18T00:59:28.892Z,0.00
2018-08-18T01:00:28.879Z,0.00
2018-08-18T01:01:28.858Z,0.00
2018-08-18T01:02:28.841Z,0.00
2018-08-18T01:03:28.831Z,0.00
2018-08-18T01:04:28.808Z,0.00
2018-08-18T01:05:28.792Z,0.00
2018-08-18T01:06:28.774Z,0.00
2018-08-18T01:07:28.759Z,0.00
2018-08-18T01:08:28.741Z,0.00
2018-08-18T01:09:28.724Z,0.00
2018-08-18T01:10:28.705Z,0.00
2018-08-18T01:11:28.737Z,0.00
2018-08-18T01:12:28.821Z,0.00
2018-08-18T01:13:28.655Z,0.00
2018-08-18T01:14:28.771Z,0.00
2018-08-18T01:15:28.624Z,0.00
2018-08-18T01:16:28.607Z,0.00
2018-08-18T01:17:28.585Z,0.00
2018-08-18T01:18:28.569Z,0.00
2018-08-18T01:19:28.553Z,0.00
2018-08-18T01:20:28.540Z,0.00
2018-08-18T01:21:28.588Z,0.00
2018-08-18T01:22:28.506Z,0.00
2018-08-18T01:23:28.485Z,0.00
2018-08-18T01:24:28.469Z,0.00
2018-08-18T01:25:28.451Z,0.00
2018-08-18T01:26:28.434Z,0.00
2018-08-18T01:27:28.416Z,0.00
2018-08-18T01:28:28.408Z,0.00
2018-08-18T01:29:28.385Z,0.00
2018-08-18T01:30:28.367Z,0.00
2018-08-18T01:31:28.349Z,0.00
2018-08-18T01:32:28.332Z,0.00
2018-08-18T01:33:28.318Z,0.00
2018-08-18T01:34:28.309Z,0.00
2018-08-18T01:35:28.278Z,0.00
2018-08-18T01:36:28.267Z,0.00
2018-08-18T01:37:28.250Z,0.00
2018-08-18T01:38:28.230Z,0.00
2018-08-18T01:39:28.212Z,0.00
2018-08-18T01:40:28.195Z,0.00
2018-08-18T01:41:28.179Z,0.00
2018-08-18T01:42:28.160Z,0.00
2018-08-18T01:43:28.144Z,0.00
2018-08-18T01:44:28.131Z,0.00
2018-08-18T01:45:28.110Z,0.00
2018-08-18T01:46:28.091Z,0.00
2018-08-18T01:47:28.073Z,0.00
2018-08-18T01:48:28.059Z,0.00
2018-08-18T01:49:28.040Z,0.00
2018-08-18T01:50:28.024Z,0.00
2018-08-18T01:51:28.011Z,0.00
2018-08-18T01:52:27.990Z,0.00
2018-08-18T01:53:27.982Z,0.00
2018-08-18T01:54:27.957Z,0.00
2018-08-18T01:55:27.939Z,0.00
2018-08-18T01:56:27.922Z,0.00
2018-08-18T01:57:27.904Z,0.00
2018-08-18T01:58:27.889Z,0.00
2018-08-18T01:59:27.870Z,0.00
2018-08-18T02:00:27.854Z,0.00
2018-08-18T02:01:27.835Z,0.00
2018-08-18T02:02:27.817Z,0.00
2018-08-18T02:03:27.802Z,0.00
2018-08-18T02:04:27.788Z,0.00
2018-08-18T02:05:27.766Z,0.00
2018-08-18T02:06:27.749Z,0.00
2018-08-18T02:07:27.733Z,0.00
2018-08-18T02:08:27.715Z,0.00
2018-08-18T02:09:27.699Z,0.00
2018-08-18T02:10:27.682Z,0.00
2018-08-18T02:11:27.669Z,0.00
2018-08-18T02:12:27.646Z,0.00
2018-08-18T02:13:27.629Z,0.00
2018-08-18T02:14:27.613Z,0.00
2018-08-18T02:15:27.595Z,0.00
2018-08-18T02:16:27.578Z,0.00
2018-08-18T02:17:27.560Z,0.00
2018-08-18T02:18:27.552Z,0.00
2018-08-18T02:19:27.527Z,0.00
2018-08-18T02:20:27.512Z,0.00
2018-08-18T02:21:27.492Z,0.00
2018-08-18T02:22:27.479Z,0.00
2018-08-18T02:23:27.465Z,0.00
2018-08-18T02:24:27.444Z,0.00
2018-08-18T02:25:27.427Z,0.00
2018-08-18T02:26:27.405Z,0.00
2018-08-18T02:27:27.391Z,0.00
2018-08-18T02:28:27.373Z,0.00
2018-08-18T02:29:27.354Z,0.00
2018-08-18T02:30:27.338Z,0.00
2018-08-18T02:31:27.319Z,0.00
2018-08-18T02:32:27.304Z,0.00
2018-08-18T02:33:27.283Z,0.00
2018-08-18T02:34:27.270Z,0.00
2018-08-18T02:35:27.248Z,0.00
2018-08-18T02:36:27.231Z,0.00
2018-08-18T02:37:27.214Z,0.00
2018-08-18T02:38:27.197Z,0.00
2018-08-18T02:39:27.181Z,0.00
2018-08-18T02:40:27.170Z,0.00
2018-08-18T02:41:27.150Z,0.00
2018-08-18T02:42:27.136Z,0.00
2018-08-18T02:43:27.113Z,0.00
2018-08-18T02:44:27.094Z,0.00
2018-08-18T02:45:27.077Z,0.00
2018-08-18T02:46:27.058Z,0.00
2018-08-18T02:47:27.042Z,0.00
2018-08-18T02:48:27.029Z,0.00
2018-08-18T02:49:27.008Z,0.00
2018-08-18T02:50:26.990Z,0.00
2018-08-18T02:51:26.974Z,0.00
2018-08-18T02:52:26.955Z,0.00
2018-08-18T02:53:26.937Z,0.00
2018-08-18T02:54:26.925Z,0.00
2018-08-18T02:55:26.905Z,0.00
2018-08-18T02:56:26.885Z,0.00
2018-08-18T02:57:26.868Z,0.00
2018-08-18T02:58:26.850Z,0.00
2018-08-18T02:59:26.838Z,0.00
2018-08-18T03:00:26.819Z,0.00
2018-08-18T03:01:26.800Z,0.00
2018-08-18T03:02:26.783Z,0.00
2018-08-18T03:03:26.764Z,0.00
2018-08-18T03:04:26.757Z,0.00
2018-08-18T03:05:26.738Z,0.00
2018-08-18T03:06:26.715Z,0.00
2018-08-18T03:07:26.695Z,0.00
2018-08-18T03:08:26.680Z,0.00
2018-08-18T03:09:26.662Z,0.00
2018-08-18T03:10:26.651Z,0.00
2018-08-18T03:11:26.628Z,0.00
2018-08-18T03:12:26.609Z,0.00
2018-08-18T03:13:26.592Z,0.00
2018-08-18T03:14:26.577Z,0.00
2018-08-18T03:15:26.557Z,0.00
2018-08-18T03:16:26.539Z,0.00
2018-08-18T03:17:26.523Z,0.00
2018-08-18T03:18:26.506Z,0.00
2018-08-18T03:19:26.491Z,0.00
2018-08-18T03:20:26.475Z,0.00
2018-08-18T03:21:26.452Z,0.00
2018-08-18T03:22:26.436Z,0.00
2018-08-18T03:23:26.417Z,0.00
2018-08-18T03:24:26.401Z,0.00
2018-08-18T03:25:26.381Z,0.00
2018-08-18T03:26:26.365Z,0.00
2018-08-18T03:27:26.349Z,0.00
2018-08-18T03:28:26.333Z,0.00
2018-08-18T03:29:26.316Z,0.00
2018-08-18T03:30:26.293Z,0.00
2018-08-18T03:31:26.276Z,0.00
2018-08-18T03:32:26.260Z,0.00
2018-08-18T03:33:26.240Z,0.00
2018-08-18T03:34:26.224Z,0.00
2018-08-18T03:35:26.209Z,0.00
2018-08-18T03:36:26.199Z,0.00
2018-08-18T03:37:26.173Z,0.00
2018-08-18T03:38:26.156Z,0.00
2018-08-18T03:39:26.139Z,0.00
2018-08-18T03:40:26.121Z,0.00
2018-08-18T03:41:26.110Z,0.00
2018-08-18T03:42:26.084Z,0.00
2018-08-18T03:43:26.069Z,0.00
2018-08-18T03:44:26.051Z,0.00
2018-08-18T03:45:26.031Z,0.00
2018-08-18T03:46:26.015Z,0.00
2018-08-18T03:47:25.999Z,0.00
2018-08-18T03:48:25.980Z,0.00
2018-08-18T03:49:25.963Z,0.00
2018-08-18T03:50:25.944Z,0.00
2018-08-18T03:51:25.927Z,0.00
2018-08-18T03:52:25.938Z,0.00
2018-08-18T03:53:25.892Z,0.00
2018-08-18T03:54:25.873Z,0.00
2018-08-18T03:55:25.860Z,0.00
2018-08-18T03:56:25.841Z,0.00
2018-08-18T03:57:25.820Z,0.00
2018-08-18T03:58:25.803Z,0.00
2018-08-18T03:59:25.786Z,0.00
2018-08-18T04:00:25.767Z,0.00
2018-08-18T04:01:25.752Z,0.00
2018-08-18T04:02:25.743Z,0.00
2018-08-18T04:03:25.715Z,0.00
2018-08-18T04:04:25.698Z,0.00
2018-08-18T04:05:25.679Z,0.00
2018-08-18T04:06:25.663Z,0.00
2018-08-18T04:07:25.645Z,0.00
2018-08-18T04:08:25.628Z,0.00
2018-08-18T04:09:25.710Z,0.00
2018-08-18T04:10:25.596Z,0.00
2018-08-18T04:11:25.579Z,0.00
2018-08-18T04:12:25.557Z,0.00
2018-08-18T04:13:25.543Z,0.00
2018-08-18T04:14:25.566Z,0.00
2018-08-18T04:15:25.505Z,0.00
2018-08-18T04:16:25.485Z,0.00
2018-08-18T04:17:25.469Z,0.00
2018-08-18T04:18:25.456Z,0.00
2018-08-18T04:19:25.502Z,0.00
2018-08-18T04:20:25.419Z,0.00
2018-08-18T04:21:25.398Z,0.00
2018-08-18T04:22:25.381Z,0.00
2018-08-18T04:23:25.364Z,0.00
2018-08-18T04:24:25.348Z,0.00
2018-08-18T04:25:25.458Z,0.00
2018-08-18T04:26:25.315Z,0.00
2018-08-18T04:27:25.297Z,0.00
2018-08-18T04:28:25.276Z,0.00
2018-08-18T04:29:25.257Z,0.00
2018-08-18T04:30:25.244Z,0.00
2018-08-18T04:31:25.222Z,0.00
2018-08-18T04:32:25.206Z,0.00
2018-08-18T04:33:25.190Z,0.00
2018-08-18T04:34:25.190Z,0.00
2018-08-18T04:35:25.209Z,0.00
2018-08-18T04:36:25.133Z,0.00
2018-08-18T04:37:25.119Z,0.00
2018-08-18T04:38:25.096Z,0.00
2018-08-18T04:39:25.080Z,0.00
2018-08-18T04:40:25.064Z,0.00
2018-08-18T04:41:25.044Z,0.00
2018-08-18T04:42:25.031Z,0.00
2018-08-18T04:43:25.010Z,0.00
2018-08-18T04:44:25.012Z,0.00
2018-08-18T04:45:24.989Z,0.00
2018-08-18T04:46:24.957Z,0.00
2018-08-18T04:47:24.938Z,0.00
2018-08-18T04:48:24.919Z,0.00
2018-08-18T04:49:24.910Z,0.00
2018-08-18T04:50:24.909Z,0.00
2018-08-18T04:51:24.868Z,0.00
2018-08-18T04:52:24.853Z,0.00
2018-08-18T04:53:24.831Z,0.00
2018-08-18T04:54:24.818Z,0.00
2018-08-18T04:55:24.796Z,0.00
2018-08-18T04:56:24.779Z,0.00
2018-08-18T04:57:24.769Z,0.00
2018-08-18T04:58:24.745Z,0.00
2018-08-18T04:59:24.836Z,0.00
2018-08-18T05:00:24.709Z,0.00
2018-08-18T05:01:24.688Z,0.00
2018-08-18T05:02:24.675Z,0.00
2018-08-18T05:03:24.688Z,0.00
2018-08-18T05:04:24.638Z,0.00
2018-08-18T05:05:24.619Z,0.00
2018-08-18T05:06:24.602Z,0.00
2018-08-18T05:07:24.584Z,0.00
2018-08-18T05:08:24.569Z,0.00
2018-08-18T05:09:24.547Z,0.00
2018-08-18T05:10:24.532Z,0.00
2018-08-18T05:11:24.512Z,0.00
2018-08-18T05:12:24.499Z,0.00
2018-08-18T05:13:24.480Z,0.00
2018-08-18T05:14:24.460Z,0.00
2018-08-18T05:15:24.443Z,0.00
2018-08-18T05:16:24.424Z,0.00
2018-08-18T05:17:24.406Z,0.00
2018-08-18T05:18:24.392Z,0.00
2018-08-18T05:19:24.504Z,0.00
2018-08-18T05:20:24.357Z,0.00
2018-08-18T05:21:24.347Z,0.00
2018-08-18T05:22:24.319Z,0.00
2018-08-18T05:23:24.303Z,0.00
2018-08-18T05:24:24.292Z,0.00
2018-08-18T05:25:24.272Z,0.00
2018-08-18T05:26:24.248Z,0.00
2018-08-18T05:27:24.231Z,0.00
2018-08-18T05:28:24.213Z,0.00
2018-08-18T05:29:24.195Z,0.00
2018-08-18T05:30:24.177Z,0.00
2018-08-18T05:31:24.161Z,0.00
2018-08-18T05:32:24.147Z,5.63
2018-08-18T05:33:24.126Z,5.63
2018-08-18T05:34:24.108Z,5.63
2018-08-18T05:35:24.096Z,5.63
2018-08-18T05:36:24.115Z,5.63
2018-08-18T05:37:24.056Z,5.63
2018-08-18T05:38:24.037Z,5.63
2018-08-18T05:39:24.030Z,5.63
2018-08-18T05:40:24.005Z,5.63
2018-08-18T05:41:23.991Z,5.63
2018-08-18T05:42:23.967Z,5.63
2018-08-18T05:43:23.951Z,5.63
2018-08-18T05:44:23.931Z,5.63
2018-08-18T05:45:23.918Z,5.63
2018-08-18T05:46:23.900Z,5.63
2018-08-18T05:47:23.914Z,5.63
2018-08-18T05:48:23.861Z,5.63
2018-08-18T05:49:23.843Z,5.63
2018-08-18T05:50:23.826Z,5.63
2018-08-18T05:51:23.818Z,5.63
2018-08-18T05:52:23.792Z,5.63
2018-08-18T05:53:23.775Z,5.63
2018-08-18T05:54:23.755Z,5.63
2018-08-18T05:55:23.738Z,5.63
2018-08-18T05:56:23.722Z,5.63
2018-08-18T05:57:23.704Z,5.63
2018-08-18T05:58:23.689Z,5.63
2018-08-18T05:59:23.679Z,5.63
2018-08-18T06:00:23.653Z,5.63
2018-08-18T06:01:23.636Z,5.63
2018-08-18T06:02:23.618Z,5.63
2018-08-18T06:03:23.600Z,5.63
2018-08-18T06:04:23.584Z,5.63
2018-08-18T06:05:23.567Z,5.63
2018-08-18T06:06:23.548Z,5.63
2018-08-18T06:07:23.530Z,5.63
2018-08-18T06:08:23.515Z,5.63
2018-08-18T06:09:23.493Z,5.63
2018-08-18T06:10:23.478Z,5.63
2018-08-18T06:11:23.463Z,5.63
2018-08-18T06:12:23.444Z,5.63
2018-08-18T06:13:23.425Z,5.63
2018-08-18T06:14:23.407Z,5.63
2018-08-18T06:15:23.392Z,5.63
2018-08-18T06:16:23.374Z,5.63
2018-08-18T06:17:23.356Z,5.63
2018-08-18T06:18:23.339Z,5.63
2018-08-18T06:19:23.328Z,5.63
2018-08-18T06:20:23.307Z,5.63
2018-08-18T06:21:23.294Z,5.63
2018-08-18T06:22:23.269Z,5.63
2018-08-18T06:23:23.254Z,5.63
2018-08-18T06:24:23.282Z,5.63
2018-08-18T06:25:23.223Z,5.63
2018-08-18T06:26:23.202Z,5.63
2018-08-18T06:27:23.184Z,5.63
2018-08-18T06:28:23.169Z,11.25
2018-08-18T06:29:23.149Z,11.25
2018-08-18T06:30:23.135Z,11.25
2018-08-18T06:31:23.126Z,11.25
2018-08-18T06:32:23.099Z,11.25
2018-08-18T06:33:23.080Z,11.25
2018-08-18T06:34:23.079Z,11.25
2018-08-18T06:35:23.047Z,11.25
2018-08-18T06:36:23.033Z,11.25
2018-08-18T06:37:23.013Z,11.25
2018-08-18T06:38:22.995Z,11.25
2018-08-18T06:39:22.978Z,11.25
2018-08-18T06:40:22.961Z,11.25
2018-08-18T06:41:23.011Z,11.25
2018-08-18T06:42:22.928Z,11.25
2018-08-18T06:43:22.907Z,11.25
2018-08-18T06:44:22.892Z,11.25
2018-08-18T06:45:22.873Z,11.25
2018-08-18T06:46:22.854Z,11.25
2018-08-18T06:47:22.842Z,11.25
2018-08-18T06:48:22.825Z,11.25
2018-08-18T06:49:22.802Z,11.25
2018-08-18T06:50:22.786Z,11.25
2018-08-18T06:51:22.769Z,11.25
2018-08-18T06:52:22.766Z,11.25
2018-08-18T06:53:22.735Z,11.25
2018-08-18T06:54:22.837Z,11.25
2018-08-18T06:55:22.699Z,11.25
2018-08-18T06:56:22.686Z,16.88
2018-08-18T06:57:22.664Z,16.88
2018-08-18T06:58:22.648Z,16.88
2018-08-18T06:59:22.632Z,16.88
2018-08-18T07:00:22.614Z,16.88
2018-08-18T07:01:22.604Z,16.88
2018-08-18T07:02:22.579Z,16.88
2018-08-18T07:03:22.566Z,16.88
2018-08-18T07:04:22.548Z,16.88
2018-08-18T07:05:22.530Z,16.88
2018-08-18T07:06:22.512Z,16.88
2018-08-18T07:07:22.494Z,16.88
2018-08-18T07:08:22.478Z,16.88
2018-08-18T07:09:22.464Z,16.88
2018-08-18T07:10:22.447Z,16.88
2018-08-18T07:11:22.424Z,16.88
2018-08-18T07:12:22.408Z,22.50
2018-08-18T07:13:22.388Z,22.50
2018-08-18T07:14:22.373Z,22.50
2018-08-18T07:15:22.358Z,22.50
2018-08-18T07:16:22.338Z,22.50
2018-08-18T07:17:22.325Z,22.50
2018-08-18T07:18:22.313Z,22.50
2018-08-18T07:19:22.343Z,22.50
2018-08-18T07:20:22.272Z,22.50
2018-08-18T07:21:22.252Z,22.50
2018-08-18T07:22:22.243Z,22.50
2018-08-18T07:23:22.229Z,22.50
2018-08-18T07:24:22.202Z,22.50
2018-08-18T07:25:22.190Z,22.50
2018-08-18T07:26:22.170Z,22.50
2018-08-18T07:27:22.154Z,22.50
2018-08-18T07:28:22.171Z,22.50
2018-08-18T07:29:22.122Z,28.13
2018-08-18T07:30:22.101Z,28.13
2018-08-18T07:31:22.085Z,28.13
2018-08-18T07:32:22.080Z,28.13
2018-08-18T07:33:22.052Z,28.13
2018-08-18T07:34:22.032Z,28.13
2018-08-18T07:35:22.022Z,33.75
2018-08-18T07:36:22.001Z,33.75
2018-08-18T07:37:22.028Z,33.75
2018-08-18T07:38:21.966Z,33.75
2018-08-18T07:39:21.949Z,33.75
2018-08-18T07:40:21.934Z,39.38
2018-08-18T07:41:21.919Z,39.38
2018-08-18T07:42:21.915Z,39.38
2018-08-18T07:43:21.884Z,39.38
2018-08-18T07:44:21.871Z,39.38
2018-08-18T07:45:21.851Z,39.38
2018-08-18T07:46:21.885Z,39.38
2018-08-18T07:47:21.829Z,39.38
2018-08-18T07:48:21.805Z,39.38
2018-08-18T07:49:21.789Z,39.38
2018-08-18T07:50:21.770Z,39.38
2018-08-18T07:51:21.762Z,39.38
2018-08-18T07:52:21.747Z,39.38
2018-08-18T07:53:21.751Z,39.38
2018-08-18T07:54:21.711Z,39.38
2018-08-18T07:55:21.690Z,39.38
2018-08-18T07:56:21.675Z,39.38
2018-08-18T07:57:21.658Z,39.38
2018-08-18T07:58:21.640Z,45.00
2018-08-18T07:59:21.624Z,45.00
2018-08-18T08:00:21.610Z,45.00
2018-08-18T08:01:21.591Z,45.00
2018-08-18T08:02:21.579Z,45.00
2018-08-18T08:03:21.571Z,45.00
2018-08-18T08:04:21.544Z,45.00
2018-08-18T08:05:21.525Z,50.63
2018-08-18T08:06:21.510Z,50.63
2018-08-18T08:07:21.496Z,50.63
2018-08-18T08:08:21.494Z,50.63
2018-08-18T08:09:21.466Z,50.63
2018-08-18T08:10:21.448Z,50.63
2018-08-18T08:11:21.432Z,50.63
2018-08-18T08:12:21.435Z,56.25
2018-08-18T08:13:21.406Z,50.63
2018-08-18T08:14:21.396Z,50.63
2018-08-18T08:15:21.369Z,50.63
2018-08-18T08:16:21.358Z,50.63
2018-08-18T08:17:21.337Z,50.63
2018-08-18T08:18:21.422Z,50.63
2018-08-18T08:19:21.307Z,50.63
2018-08-18T08:20:21.291Z,50.63
2018-08-18T08:21:21.277Z,50.63
2018-08-18T08:22:21.266Z,50.63
2018-08-18T08:23:21.243Z,50.63
2018-08-18T08:24:21.234Z,56.25
2018-08-18T08:25:21.212Z,56.25
2018-08-18T08:26:21.198Z,56.25
2018-08-18T08:27:21.181Z,56.25
2018-08-18T08:28:21.166Z,56.25
2018-08-18T08:29:21.150Z,56.25
2018-08-18T08:30:21.134Z,56.25
2018-08-18T08:31:21.123Z,56.25
2018-08-18T08:32:21.113Z,56.25
2018-08-18T08:33:21.088Z,50.63
2018-08-18T08:34:21.075Z,50.63
2018-08-18T08:35:21.056Z,50.63
2018-08-18T08:36:21.042Z,56.25
2018-08-18T08:37:21.026Z,50.63
2018-08-18T08:38:21.014Z,56.25
2018-08-18T08:39:21.007Z,56.25
2018-08-18T08:40:20.981Z,56.25
2018-08-18T08:41:20.974Z,61.88
2018-08-18T08:42:20.959Z,61.88
2018-08-18T08:43:21.028Z,61.88
2018-08-18T08:44:20.925Z,61.88
2018-08-18T08:45:20.905Z,61.88
2018-08-18T08:46:20.888Z,61.88
2018-08-18T08:47:20.877Z,61.88
2018-08-18T08:48:20.861Z,61.88
2018-08-18T08:49:20.849Z,61.88
2018-08-18T08:50:20.832Z,61.88
2018-08-18T08:51:20.814Z,61.88
2018-08-18T08:52:20.808Z,61.88
2018-08-18T08:53:20.784Z,61.88
2018-08-18T08:54:20.776Z,61.88
2018-08-18T08:55:20.761Z,61.88
2018-08-18T08:56:20.748Z,61.88
2018-08-18T08:57:20.725Z,61.88
2018-08-18T08:58:20.709Z,56.25
2018-08-18T08:59:20.693Z,67.50
2018-08-18T09:00:20.679Z,56.25
2018-08-18T09:01:20.662Z,61.88
2018-08-18T09:02:20.651Z,61.88
2018-08-18T09:03:20.633Z,61.88
2018-08-18T09:04:20.618Z,61.88
2018-08-18T09:05:20.606Z,61.88
2018-08-18T09:06:20.588Z,61.88
2018-08-18T09:07:20.575Z,67.50
2018-08-18T09:08:20.559Z,67.50
2018-08-18T09:09:20.543Z,67.50
2018-08-18T09:10:20.636Z,67.50
2018-08-18T09:11:20.531Z,67.50
2018-08-18T09:12:20.500Z,67.50
2018-08-18T09:13:20.485Z,61.88
2018-08-18T09:14:20.470Z,61.88
2018-08-18T09:15:20.453Z,56.25
2018-08-18T09:16:20.445Z,61.88
2018-08-18T09:17:20.425Z,56.25
2018-08-18T09:18:20.413Z,56.25
2018-08-18T09:19:20.397Z,56.25
2018-08-18T09:20:20.383Z,61.88
2018-08-18T09:21:20.367Z,61.88
2018-08-18T09:22:20.351Z,61.88
2018-08-18T09:23:20.349Z,67.50
2018-08-18T09:24:20.325Z,61.88
2018-08-18T09:25:20.315Z,61.88
2018-08-18T09:26:20.318Z,67.50
2018-08-18T09:27:20.279Z,67.50
2018-08-18T09:28:20.273Z,67.50
2018-08-18T09:29:20.249Z,67.50
2018-08-18T09:30:20.253Z,67.50
2018-08-18T09:31:20.220Z,67.50
2018-08-18T09:32:20.207Z,67.50
2018-08-18T09:33:20.198Z,67.50
2018-08-18T09:34:20.190Z,67.50
2018-08-18T09:35:20.174Z,67.50
2018-08-18T09:36:20.235Z,67.50
2018-08-18T09:37:20.138Z,67.50
2018-08-18T09:38:20.128Z,67.50
2018-08-18T09:39:20.113Z,61.88
2018-08-18T09:40:20.095Z,67.50
2018-08-18T09:41:20.076Z,67.50
2018-08-18T09:42:20.065Z,67.50
2018-08-18T09:43:20.047Z,67.50
2018-08-18T09:44:20.034Z,67.50
2018-08-18T09:45:20.024Z,67.50
2018-08-18T09:46:20.030Z,67.50
2018-08-18T09:47:19.989Z,67.50
2018-08-18T09:48:19.975Z,67.50
2018-08-18T09:49:19.968Z,67.50
2018-08-18T09:50:19.954Z,67.50
2018-08-18T09:51:19.939Z,61.88
2018-08-18T09:52:19.952Z,73.13
2018-08-18T09:53:19.918Z,67.50
2018-08-18T09:54:19.889Z,61.88
2018-08-18T09:55:19.878Z,73.13
2018-08-18T09:56:19.866Z,61.88
2018-08-18T09:57:19.853Z,73.13
2018-08-18T09:58:19.837Z,73.13
2018-08-18T09:59:19.883Z,78.75
2018-08-18T10:00:19.803Z,61.88
2018-08-18T10:01:19.795Z,67.50
2018-08-18T10:02:19.782Z,33.75
2018-08-18T10:03:19.769Z,56.25
2018-08-18T10:04:19.746Z,67.50
2018-08-18T10:05:19.736Z,73.13
2018-08-18T10:06:19.776Z,73.13
2018-08-18T10:07:19.706Z,67.50
2018-08-18T10:08:19.690Z,73.13
2018-08-18T10:09:19.686Z,73.13
2018-08-18T10:10:19.669Z,39.38
2018-08-18T10:11:19.657Z,67.50
2018-08-18T10:12:19.635Z,73.13
2018-08-18T10:13:19.627Z,73.13
2018-08-18T10:14:19.606Z,73.13
2018-08-18T10:15:19.655Z,73.13
2018-08-18T10:16:19.576Z,78.75
2018-08-18T10:17:19.564Z,45.00
2018-08-18T10:18:19.549Z,22.50
2018-08-18T10:19:19.547Z,22.50
2018-08-18T10:20:19.520Z,22.50
2018-08-18T10:21:19.510Z,22.50
2018-08-18T10:22:19.499Z,22.50
2018-08-18T10:23:19.492Z,78.75
2018-08-18T10:24:19.469Z,22.50
2018-08-18T10:25:19.451Z,22.50
2018-08-18T10:26:19.433Z,73.13
2018-08-18T10:27:19.444Z,28.13
2018-08-18T10:28:19.413Z,45.00
2018-08-18T10:29:19.392Z,73.13
2018-08-18T10:30:19.390Z,73.13
2018-08-18T10:31:19.367Z,73.13
2018-08-18T10:32:19.348Z,73.13
2018-08-18T10:33:19.385Z,73.13
2018-08-18T10:34:19.321Z,73.13
2018-08-18T10:35:19.317Z,73.13
2018-08-18T10:36:19.292Z,73.13
2018-08-18T10:37:19.279Z,73.13
2018-08-18T10:38:19.268Z,73.13
2018-08-18T10:39:19.253Z,67.50
2018-08-18T10:40:19.246Z,73.13
2018-08-18T10:41:19.223Z,73.13
2018-08-18T10:42:19.208Z,73.13
2018-08-18T10:43:19.195Z,73.13
2018-08-18T10:44:19.179Z,28.13
2018-08-18T10:45:19.164Z,73.13
2018-08-18T10:46:19.149Z,73.13
2018-08-18T10:47:19.141Z,73.13
2018-08-18T10:48:19.121Z,73.13
2018-08-18T10:49:19.114Z,67.50
2018-08-18T10:50:19.096Z,67.50
2018-08-18T10:51:19.077Z,67.50
2018-08-18T10:52:19.064Z,67.50
2018-08-18T10:53:19.053Z,67.50
2018-08-18T10:54:19.043Z,67.50
2018-08-18T10:55:19.028Z,73.13
2018-08-18T10:56:19.013Z,73.13
2018-08-18T10:57:18.996Z,67.50
2018-08-18T10:58:18.981Z,67.50
2018-08-18T10:59:18.967Z,67.50
2018-08-18T11:00:18.952Z,67.50
2018-08-18T11:01:18.942Z,73.13
2018-08-18T11:02:18.931Z,73.13
2018-08-18T11:03:18.913Z,67.50
2018-08-18T11:04:18.901Z,67.50
2018-08-18T11:05:18.883Z,67.50
2018-08-18T11:06:18.872Z,73.13
2018-08-18T11:07:18.871Z,67.50
2018-08-18T11:08:18.857Z,67.50
2018-08-18T11:09:18.829Z,61.88
2018-08-18T11:10:18.817Z,67.50
2018-08-18T11:11:18.802Z,67.50
2018-08-18T11:12:18.793Z,61.88
2018-08-18T11:13:18.773Z,67.50
2018-08-18T11:14:18.762Z,73.13
2018-08-18T11:15:18.747Z,67.50
2018-08-18T11:16:18.740Z,67.50
2018-08-18T11:17:18.719Z,67.50
2018-08-18T11:18:18.706Z,67.50
2018-08-18T11:19:18.697Z,67.50
2018-08-18T11:20:18.686Z,67.50
2018-08-18T11:21:18.677Z,67.50
2018-08-18T11:22:18.649Z,67.50
2018-08-18T11:23:18.638Z,73.13
2018-08-18T11:24:18.624Z,73.13
2018-08-18T11:25:18.609Z,73.13
2018-08-18T11:26:18.598Z,67.50
2018-08-18T11:27:18.583Z,67.50
2018-08-18T11:28:18.600Z,67.50
2018-08-18T11:29:18.556Z,67.50
2018-08-18T11:30:18.544Z,73.13
2018-08-18T11:31:18.538Z,73.13
2018-08-18T11:32:18.537Z,73.13
2018-08-18T11:33:18.504Z,73.13
2018-08-18T11:34:18.492Z,67.50
2018-08-18T11:35:18.478Z,67.50
2018-08-18T11:36:18.462Z,67.50
2018-08-18T11:37:18.457Z,67.50
2018-08-18T11:38:18.436Z,67.50
2018-08-18T11:39:18.422Z,67.50
2018-08-18T11:40:18.409Z,67.50
2018-08-18T11:41:18.406Z,67.50
2018-08-18T11:42:18.385Z,67.50
2018-08-18T11:43:18.373Z,67.50
2018-08-18T11:44:18.362Z,67.50
2018-08-18T11:45:18.344Z,67.50
2018-08-18T11:46:18.352Z,67.50
2018-08-18T11:47:18.317Z,67.50
2018-08-18T11:48:18.310Z,73.13
2018-08-18T11:49:18.289Z,67.50
2018-08-18T11:50:18.276Z,67.50
2018-08-18T11:51:18.269Z,67.50
2018-08-18T11:52:18.251Z,67.50
2018-08-18T11:53:18.237Z,67.50
2018-08-18T11:54:18.225Z,67.50
2018-08-18T11:55:18.212Z,67.50
2018-08-18T11:56:18.199Z,67.50
2018-08-18T11:57:18.182Z,67.50
2018-08-18T11:58:18.175Z,67.50
2018-08-18T11:59:18.167Z,67.50
2018-08-18T12:00:18.148Z,67.50
2018-08-18T12:01:18.138Z,67.50
2018-08-18T12:02:18.119Z,67.50
2018-08-18T12:03:18.108Z,67.50
2018-08-18T12:04:18.095Z,67.50
2018-08-18T12:05:18.081Z,67.50
2018-08-18T12:06:18.071Z,67.50
2018-08-18T12:07:18.053Z,73.13
2018-08-18T12:08:18.040Z,67.50
2018-08-18T12:09:18.030Z,67.50
2018-08-18T12:10:18.013Z,67.50
2018-08-18T12:11:18.003Z,67.50
2018-08-18T12:12:17.990Z,67.50
2018-08-18T12:13:17.974Z,67.50
2018-08-18T12:14:17.965Z,73.13
2018-08-18T12:15:17.948Z,73.13
2018-08-18T12:16:17.934Z,73.13
2018-08-18T12:17:17.924Z,73.13
2018-08-18T12:18:17.908Z,73.13
2018-08-18T12:19:17.899Z,67.50
2018-08-18T12:20:17.933Z,73.13
2018-08-18T12:21:17.876Z,73.13
2018-08-18T12:22:17.857Z,73.13
2018-08-18T12:23:17.847Z,73.13
2018-08-18T12:24:17.840Z,73.13
2018-08-18T12:25:17.819Z,73.13
2018-08-18T12:26:17.805Z,73.13
2018-08-18T12:27:17.794Z,73.13
2018-08-18T12:28:17.791Z,73.13
2018-08-18T12:29:17.778Z,73.13
2018-08-18T12:30:17.752Z,73.13
2018-08-18T12:31:17.740Z,73.13
2018-08-18T12:32:17.730Z,73.13
2018-08-18T12:33:17.713Z,73.13
2018-08-18T12:34:17.702Z,73.13
2018-08-18T12:35:17.698Z,73.13
2018-08-18T12:36:17.761Z,73.13
2018-08-18T12:37:17.662Z,73.13
2018-08-18T12:38:17.648Z,73.13
2018-08-18T12:39:17.637Z,73.13
2018-08-18T12:40:17.633Z,73.13
2018-08-18T12:41:17.609Z,73.13
2018-08-18T12:42:17.597Z,73.13
2018-08-18T12:43:17.590Z,73.13
2018-08-18T12:44:17.571Z,73.13
2018-08-18T12:45:17.556Z,73.13
2018-08-18T12:46:17.543Z,73.13
2018-08-18T12:47:17.539Z,73.13
2018-08-18T12:48:17.517Z,73.13
2018-08-18T12:49:17.507Z,73.13
2018-08-18T12:50:17.563Z,73.13
2018-08-18T12:51:17.480Z,73.13
2018-08-18T12:52:17.466Z,73.13
2018-08-18T12:53:17.455Z,73.13
2018-08-18T12:54:17.445Z,73.13
2018-08-18T12:55:17.427Z,73.13
2018-08-18T12:56:17.417Z,67.50
2018-08-18T12:57:17.402Z,73.13
2018-08-18T12:58:17.441Z,73.13
2018-08-18T12:59:17.380Z,73.13
2018-08-18T13:00:17.367Z,73.13
2018-08-18T13:01:17.352Z,73.13
2018-08-18T13:02:17.346Z,73.13
2018-08-18T13:03:17.326Z,73.13
2018-08-18T13:04:17.365Z,73.13
2018-08-18T13:05:17.301Z,73.13